createdAt,value
2023-05-19T00:02:06.170Z,35.85
2023-05-19T00:04:33.549Z,35.62
2023-05-19T00:07:01.350Z,36.01
2023-05-19T00:09:28.432Z,36.16
2023-05-19T00:11:56.844Z,35.75
2023-05-19T00:14:23.981Z,35.89
2023-05-19T00:16:50.834Z,35.96
2023-05-19T00:19:17.778Z,36.21
2023-05-19T00:21:44.253Z,36.13
2023-05-19T00:24:10.621Z,36.31
2023-05-19T00:26:37.530Z,36.70
2023-05-19T00:29:07.021Z,36.53
2023-05-19T00:31:35.101Z,36.53
2023-05-19T00:34:01.623Z,36.78
2023-05-19T00:36:28.494Z,36.28
2023-05-19T00:38:54.940Z,36.44
2023-05-19T00:41:21.634Z,36.70
2023-05-19T00:43:48.128Z,36.71
2023-05-19T00:46:14.968Z,36.89
2023-05-19T00:48:44.957Z,36.77
2023-05-19T00:51:14.620Z,36.88
2023-05-19T00:53:41.579Z,36.99
2023-05-19T00:56:07.961Z,37.02
2023-05-19T00:58:35.910Z,37.32
2023-05-19T01:01:07.249Z,37.18
2023-05-19T01:03:35.764Z,37.10
2023-05-19T01:06:04.936Z,37.20
2023-05-19T01:08:40.997Z,37.79
2023-05-19T01:11:08.490Z,37.42
2023-05-19T01:13:36.094Z,37.09
2023-05-19T01:16:13.100Z,38.28
2023-05-19T01:18:47.437Z,38.20
2023-05-19T01:21:51.718Z,38.12
2023-05-19T01:24:46.789Z,38.16
2023-05-19T01:27:29.853Z,37.94
2023-05-19T01:30:29.893Z,38.17
2023-05-19T01:33:02.477Z,38.21
2023-05-19T01:35:30.910Z,37.50
2023-05-19T01:38:00.480Z,37.96
2023-05-19T01:40:28.173Z,37.83
2023-05-19T01:42:57.809Z,37.97
2023-05-19T01:45:25.102Z,38.19
2023-05-19T01:47:58.855Z,38.69
2023-05-19T01:50:25.636Z,38.19
2023-05-19T01:52:53.284Z,38.60
2023-05-19T01:55:21.515Z,38.37
2023-05-19T01:57:57.202Z,38.71
2023-05-19T02:00:48.635Z,39.17
2023-05-19T02:03:23.681Z,39.19
2023-05-19T02:06:19.673Z,38.98
2023-05-19T02:09:16.656Z,39.42
2023-05-19T02:12:01.042Z,38.91
2023-05-19T02:14:36.429Z,38.98
2023-05-19T02:17:05.075Z,38.85
2023-05-19T02:19:35.331Z,39.06
2023-05-19T02:22:04.760Z,38.72
2023-05-19T02:24:31.238Z,38.93
2023-05-19T02:26:57.655Z,39.23
2023-05-19T02:29:24.055Z,39.46
2023-05-19T02:31:50.919Z,39.18
2023-05-19T02:34:17.693Z,39.50
2023-05-19T02:36:45.354Z,39.33
2023-05-19T02:39:12.871Z,39.60
2023-05-19T02:41:39.339Z,39.58
2023-05-19T02:44:06.053Z,39.61
2023-05-19T02:46:33.068Z,39.66
2023-05-19T02:48:59.759Z,39.64
2023-05-19T02:51:28.110Z,39.76
2023-05-19T02:53:55.516Z,39.85
2023-05-19T02:56:23.442Z,39.71
2023-05-19T02:58:49.876Z,39.87
2023-05-19T03:01:16.734Z,39.90
2023-05-19T03:03:45.409Z,39.62
2023-05-19T03:06:12.921Z,39.73
2023-05-19T03:08:42.315Z,40.42
2023-05-19T03:11:10.479Z,40.04
2023-05-19T03:13:39.023Z,39.98
2023-05-19T03:16:07.103Z,40.40
2023-05-19T03:18:34.659Z,39.43
2023-05-19T03:21:01.145Z,39.46
2023-05-19T03:23:28.166Z,40.06
2023-05-19T03:25:56.322Z,39.96
2023-05-19T03:28:27.491Z,40.11
2023-05-19T03:30:53.998Z,39.83
2023-05-19T03:33:20.683Z,40.47
2023-05-19T03:35:48.190Z,40.42
2023-05-19T03:38:14.694Z,40.08
2023-05-19T03:40:41.957Z,39.96
2023-05-19T03:43:08.826Z,40.27
2023-05-19T03:45:35.470Z,40.11
2023-05-19T03:48:02.154Z,40.40
2023-05-19T03:50:29.076Z,40.79
2023-05-19T03:52:56.693Z,40.57
2023-05-19T03:55:23.314Z,40.40
2023-05-19T03:57:50.928Z,40.71
2023-05-19T04:00:18.053Z,40.98
2023-05-19T04:02:44.628Z,40.96
2023-05-19T04:05:11.429Z,41.23
2023-05-19T04:07:40.992Z,41.36
2023-05-19T04:10:08.034Z,41.06
2023-05-19T04:12:34.501Z,40.95
2023-05-19T04:15:00.924Z,41.10
2023-05-19T04:17:27.810Z,41.29
2023-05-19T04:19:54.389Z,40.83
2023-05-19T04:22:21.291Z,41.25
2023-05-19T04:24:48.625Z,40.60
2023-05-19T04:27:16.575Z,41.03
2023-05-19T04:29:43.642Z,41.07
2023-05-19T04:32:11.656Z,40.94
2023-05-19T04:34:46.712Z,40.86
2023-05-19T04:37:14.358Z,40.50
2023-05-19T04:39:45.367Z,40.44
2023-05-19T04:42:12.693Z,40.64
2023-05-19T04:44:40.410Z,40.83
2023-05-19T04:47:11.628Z,41.27
2023-05-19T04:49:41.275Z,40.70
2023-05-19T04:52:13.441Z,40.86
2023-05-19T04:54:40.130Z,40.44
2023-05-19T04:57:06.778Z,40.75
2023-05-19T04:59:33.794Z,40.62
2023-05-19T05:02:00.360Z,40.64
2023-05-19T05:04:26.770Z,40.65
2023-05-19T05:06:53.140Z,40.79
2023-05-19T05:09:21.487Z,40.70
2023-05-19T05:11:48.453Z,40.49
2023-05-19T05:14:16.552Z,40.48
2023-05-19T05:16:43.585Z,40.68
2023-05-19T05:19:11.179Z,40.50
2023-05-19T05:21:37.931Z,40.57
2023-05-19T05:24:04.969Z,40.48
2023-05-19T05:26:35.329Z,40.91
2023-05-19T05:29:02.915Z,40.65
2023-05-19T05:31:29.675Z,40.60
2023-05-19T05:33:56.445Z,41.05
2023-05-19T05:36:24.592Z,40.66
2023-05-19T05:38:53.104Z,40.74
2023-05-19T05:41:19.700Z,40.78
2023-05-19T05:43:46.107Z,40.52
2023-05-19T05:46:12.623Z,40.50
2023-05-19T05:48:39.711Z,40.50
2023-05-19T05:51:06.599Z,40.59
2023-05-19T05:53:39.917Z,40.63
2023-05-19T05:56:06.790Z,40.43
2023-05-19T05:58:35.800Z,40.49
2023-05-19T06:01:05.433Z,40.77
2023-05-19T06:03:33.477Z,40.91
2023-05-19T06:06:00.313Z,40.84
2023-05-19T06:08:28.237Z,41.05
2023-05-19T06:10:57.089Z,41.20
2023-05-19T06:13:24.155Z,40.95
2023-05-19T06:15:51.298Z,40.76
2023-05-19T06:18:18.088Z,40.97
2023-05-19T06:20:44.804Z,40.60
2023-05-19T06:23:11.360Z,40.40
2023-05-19T06:25:37.769Z,40.49
2023-05-19T06:28:04.346Z,40.78
2023-05-19T06:30:31.029Z,40.74
2023-05-19T06:32:57.601Z,40.71
2023-05-19T06:35:25.135Z,40.80
2023-05-19T06:37:53.915Z,40.73
2023-05-19T06:40:20.480Z,40.41
2023-05-19T06:42:46.819Z,40.04
2023-05-19T06:45:13.449Z,40.50
2023-05-19T06:47:42.372Z,40.70
2023-05-19T06:50:10.614Z,40.53
2023-05-19T06:52:38.957Z,40.00
2023-05-19T06:55:05.998Z,40.35
2023-05-19T06:57:33.233Z,39.77
2023-05-19T06:59:59.694Z,39.64
2023-05-19T07:02:26.262Z,39.81
2023-05-19T07:04:54.223Z,39.97
2023-05-19T07:07:20.790Z,39.90
2023-05-19T07:09:50.294Z,39.74
2023-05-19T07:12:16.708Z,39.35
2023-05-19T07:14:43.070Z,39.53
2023-05-19T07:17:10.845Z,39.61
2023-05-19T07:19:39.628Z,39.36
2023-05-19T07:22:06.193Z,39.20
2023-05-19T07:24:32.599Z,39.16
2023-05-19T07:26:59.023Z,39.28
2023-05-19T07:29:25.671Z,38.96
2023-05-19T07:31:54.287Z,38.77
2023-05-19T07:34:22.752Z,38.97
2023-05-19T07:36:49.142Z,38.62
2023-05-19T07:39:15.741Z,38.62
2023-05-19T07:41:42.256Z,38.43
2023-05-19T07:44:08.863Z,38.28
2023-05-19T07:46:37.803Z,38.13
2023-05-19T07:49:07.292Z,38.07
2023-05-19T07:51:33.728Z,37.71
2023-05-19T07:54:00.345Z,37.25
2023-05-19T07:56:27.324Z,37.34
2023-05-19T07:58:53.876Z,37.03
2023-05-19T08:01:20.324Z,36.94
2023-05-19T08:03:47.152Z,36.93
2023-05-19T08:06:13.642Z,36.66
2023-05-19T08:08:40.057Z,35.99
2023-05-19T08:11:06.918Z,35.78
2023-05-19T08:13:35.193Z,35.80
2023-05-19T08:16:03.885Z,35.44
2023-05-19T08:18:30.570Z,35.50
2023-05-19T08:20:57.865Z,35.28
2023-05-19T08:23:25.663Z,34.96
2023-05-19T08:25:52.208Z,34.63
2023-05-19T08:28:19.121Z,34.42
2023-05-19T08:30:45.554Z,33.65
2023-05-19T08:33:12.152Z,32.95
2023-05-19T08:35:38.641Z,32.48
2023-05-19T08:38:05.340Z,32.05
2023-05-19T08:40:35.763Z,31.32
2023-05-19T08:43:02.538Z,31.28
2023-05-19T08:45:29.990Z,30.72
2023-05-19T08:47:58.070Z,30.91
2023-05-19T08:50:32.246Z,29.40
2023-05-19T08:53:33.789Z,30.18
2023-05-19T08:56:17.690Z,29.21
2023-05-19T08:58:46.176Z,29.70
2023-05-19T09:01:13.936Z,31.13
2023-05-19T09:03:42.985Z,29.42
2023-05-19T09:06:12.534Z,29.08
2023-05-19T09:08:42.118Z,28.29
2023-05-19T09:11:12.113Z,27.91
2023-05-19T09:13:41.041Z,27.68
2023-05-19T09:16:08.181Z,28.21
2023-05-19T09:18:38.358Z,27.82
2023-05-19T09:21:09.275Z,27.67
2023-05-19T09:23:36.169Z,28.14
2023-05-19T09:26:09.015Z,27.81
2023-05-19T09:28:36.751Z,27.94
2023-05-19T09:31:11.452Z,28.15
2023-05-19T09:33:40.357Z,27.79
2023-05-19T09:36:08.704Z,27.35
2023-05-19T09:38:36.840Z,27.13
2023-05-19T09:41:04.868Z,27.64
2023-05-19T09:43:36.569Z,27.83
2023-05-19T09:46:14.321Z,27.63
2023-05-19T09:48:42.600Z,27.46
2023-05-19T09:51:12.201Z,27.41
2023-05-19T09:53:39.126Z,27.51
2023-05-19T09:56:08.668Z,27.64
2023-05-19T09:58:37.128Z,27.55
2023-05-19T10:01:04.977Z,26.85
2023-05-19T10:03:35.223Z,27.34
2023-05-19T10:06:02.879Z,27.13
2023-05-19T10:08:31.000Z,27.14
2023-05-19T10:10:57.985Z,27.13
2023-05-19T10:13:25.651Z,27.31
2023-05-19T10:15:58.943Z,27.18
2023-05-19T10:18:28.358Z,27.51
2023-05-19T10:20:58.194Z,27.45
2023-05-19T10:23:25.459Z,27.07
2023-05-19T10:25:56.602Z,26.91
2023-05-19T10:28:32.058Z,26.96
2023-05-19T10:31:04.008Z,27.00
2023-05-19T10:33:57.230Z,27.24
2023-05-19T10:36:48.455Z,27.35
2023-05-19T10:39:25.538Z,27.37
2023-05-19T10:42:05.248Z,27.14
2023-05-19T10:44:39.606Z,27.35
2023-05-19T10:47:12.407Z,27.84
2023-05-19T10:49:39.710Z,27.43
2023-05-19T10:52:22.487Z,27.62
2023-05-19T10:54:51.188Z,27.67
2023-05-19T10:57:20.066Z,27.31
2023-05-19T10:59:47.216Z,27.14
2023-05-19T11:02:56.504Z,27.38
2023-05-19T11:05:29.293Z,26.46
2023-05-19T11:08:06.192Z,26.40
2023-05-19T11:10:32.971Z,26.74
2023-05-19T11:12:59.659Z,26.94
2023-05-19T11:15:36.638Z,27.19
2023-05-19T11:18:04.887Z,26.61
2023-05-19T11:20:35.427Z,26.63
2023-05-19T11:23:11.745Z,27.34
2023-05-19T11:25:44.567Z,26.54
2023-05-19T11:28:14.712Z,27.02
2023-05-19T11:30:44.411Z,27.15
2023-05-19T11:33:11.203Z,27.26
2023-05-19T11:35:38.662Z,27.28
2023-05-19T11:38:06.907Z,26.56
2023-05-19T11:40:33.752Z,26.66
2023-05-19T11:43:02.041Z,26.16
2023-05-19T11:45:31.662Z,26.06
2023-05-19T11:48:02.410Z,25.85
2023-05-19T11:50:31.189Z,26.02
2023-05-19T11:53:02.380Z,25.92
2023-05-19T11:55:29.610Z,26.25
2023-05-19T11:58:05.610Z,26.16
2023-05-19T12:00:40.329Z,25.63
2023-05-19T12:03:08.378Z,24.91
2023-05-19T12:05:42.852Z,24.89
2023-05-19T12:08:10.601Z,24.85
2023-05-19T12:10:38.789Z,25.06
2023-05-19T12:13:09.141Z,25.19
2023-05-19T12:15:36.930Z,25.33
2023-05-19T12:18:03.950Z,25.38
2023-05-19T12:20:32.501Z,25.01
2023-05-19T12:23:00.344Z,25.68
2023-05-19T12:25:26.917Z,24.76
2023-05-19T12:27:58.659Z,24.77
2023-05-19T12:30:28.826Z,24.55
2023-05-19T12:32:57.970Z,25.11
2023-05-19T12:35:29.551Z,24.80
2023-05-19T12:37:56.139Z,24.79
2023-05-19T12:40:24.017Z,25.33
2023-05-19T12:42:54.855Z,25.35
2023-05-19T12:45:23.013Z,24.49
2023-05-19T12:47:50.482Z,24.73
2023-05-19T12:50:17.128Z,24.58
2023-05-19T12:52:46.506Z,24.70
2023-05-19T12:55:14.552Z,24.29
2023-05-19T12:57:44.310Z,24.69
2023-05-19T13:00:17.797Z,23.94
2023-05-19T13:03:07.470Z,24.62
2023-05-19T13:05:39.561Z,24.24
2023-05-19T13:08:06.827Z,24.81
2023-05-19T13:10:34.869Z,24.61
2023-05-19T13:13:02.226Z,24.53
2023-05-19T13:15:37.707Z,24.36
2023-05-19T13:18:08.586Z,24.71
2023-05-19T13:20:36.473Z,24.35
2023-05-19T13:23:06.291Z,24.22
2023-05-19T13:25:34.327Z,24.34
2023-05-19T13:28:03.886Z,24.56
2023-05-19T13:30:32.055Z,24.36
2023-05-19T13:32:59.831Z,24.54
2023-05-19T13:35:26.349Z,24.35
2023-05-19T13:37:52.872Z,24.26
2023-05-19T13:40:19.601Z,24.14
2023-05-19T13:42:46.222Z,24.03
2023-05-19T13:45:12.902Z,24.14
2023-05-19T13:47:40.096Z,24.22
2023-05-19T13:50:07.541Z,24.30
2023-05-19T13:52:35.136Z,24.05
2023-05-19T13:55:01.831Z,23.81
2023-05-19T13:57:28.508Z,23.63
2023-05-19T14:00:02.512Z,23.68
2023-05-19T14:02:30.516Z,23.77
2023-05-19T14:04:58.049Z,23.87
2023-05-19T14:07:25.461Z,24.08
2023-05-19T14:09:52.582Z,23.60
2023-05-19T14:12:20.142Z,23.87
2023-05-19T14:14:49.036Z,24.30
2023-05-19T14:17:15.920Z,24.15
2023-05-19T14:19:42.417Z,23.24
2023-05-19T14:22:08.856Z,23.72
2023-05-19T14:24:35.414Z,24.03
2023-05-19T14:27:02.708Z,24.47
2023-05-19T14:29:31.247Z,24.01
2023-05-19T14:31:57.822Z,24.84
2023-05-19T14:34:26.926Z,23.54
2023-05-19T14:36:53.641Z,23.36
2023-05-19T14:39:20.256Z,23.70
2023-05-19T14:41:47.032Z,24.15
2023-05-19T14:44:14.145Z,23.60
2023-05-19T14:46:42.213Z,23.98
2023-05-19T14:49:08.658Z,24.10
2023-05-19T14:51:35.071Z,23.60
2023-05-19T14:54:02.227Z,23.56
2023-05-19T14:56:28.950Z,23.92
2023-05-19T14:58:55.395Z,23.51
2023-05-19T15:01:21.928Z,23.78
2023-05-19T15:03:48.652Z,23.68
2023-05-19T15:06:15.124Z,23.68
2023-05-19T15:08:41.649Z,23.40
2023-05-19T15:11:08.228Z,23.51
2023-05-19T15:13:35.224Z,23.44
2023-05-19T15:16:16.294Z,23.45
2023-05-19T15:18:43.754Z,23.05
2023-05-19T15:21:10.345Z,23.54
2023-05-19T15:23:37.074Z,23.40
2023-05-19T15:26:03.809Z,23.36
2023-05-19T15:28:30.477Z,23.52
2023-05-19T15:30:56.957Z,23.83
2023-05-19T15:33:23.621Z,23.97
2023-05-19T15:35:53.089Z,23.82
2023-05-19T15:38:20.469Z,23.99
2023-05-19T15:40:47.098Z,23.77
2023-05-19T15:43:14.062Z,24.04
2023-05-19T15:45:40.963Z,23.65
2023-05-19T15:48:07.842Z,23.92
2023-05-19T15:50:34.732Z,24.07
2023-05-19T15:53:01.805Z,23.75
2023-05-19T15:55:28.297Z,23.89
2023-05-19T15:57:54.720Z,23.43
2023-05-19T16:00:21.306Z,23.45
2023-05-19T16:02:47.958Z,23.65
2023-05-19T16:05:15.559Z,23.23
2023-05-19T16:07:42.297Z,23.44
2023-05-19T16:10:09.534Z,23.65
2023-05-19T16:12:37.573Z,23.87
2023-05-19T16:15:04.411Z,23.96
2023-05-19T16:17:30.994Z,24.18
2023-05-19T16:19:57.753Z,24.07
2023-05-19T16:22:24.912Z,23.76
2023-05-19T16:24:52.205Z,23.51
2023-05-19T16:27:21.613Z,23.72
2023-05-19T16:29:48.481Z,23.81
2023-05-19T16:32:15.313Z,24.12
2023-05-19T16:34:44.027Z,23.97
2023-05-19T16:37:10.665Z,23.86
2023-05-19T16:39:37.268Z,23.75
2023-05-19T16:42:04.753Z,23.73
2023-05-19T16:44:31.421Z,23.85
2023-05-19T16:46:58.354Z,24.24
2023-05-19T16:49:25.921Z,24.36
2023-05-19T16:51:53.109Z,24.10
2023-05-19T16:54:20.215Z,24.46
2023-05-19T16:56:46.710Z,24.17
2023-05-19T16:59:14.007Z,24.05
2023-05-19T17:01:42.085Z,23.86
2023-05-19T17:04:08.815Z,24.70
2023-05-19T17:06:36.143Z,24.15
2023-05-19T17:09:02.858Z,24.01
2023-05-19T17:11:29.562Z,24.28
2023-05-19T17:13:55.999Z,24.78
2023-05-19T17:16:23.566Z,24.20
2023-05-19T17:18:51.589Z,24.08
2023-05-19T17:21:18.108Z,24.13
2023-05-19T17:23:46.304Z,24.57
2023-05-19T17:26:12.787Z,24.21
2023-05-19T17:28:39.228Z,24.66
2023-05-19T17:31:12.518Z,24.56
2023-05-19T17:33:39.742Z,24.57
2023-05-19T17:36:07.149Z,24.27
2023-05-19T17:38:35.556Z,24.50
2023-05-19T17:41:02.822Z,24.59
2023-05-19T17:43:29.353Z,24.61
2023-05-19T17:45:58.779Z,24.65
2023-05-19T17:48:26.741Z,24.89
2023-05-19T17:50:54.696Z,25.03
2023-05-19T17:53:21.606Z,24.96
2023-05-19T17:55:51.736Z,24.97
2023-05-19T17:58:26.406Z,24.88
2023-05-19T18:00:54.284Z,24.78
2023-05-19T18:03:24.107Z,24.55
2023-05-19T18:05:53.771Z,24.71
2023-05-19T18:08:20.589Z,24.75
2023-05-19T18:10:48.549Z,24.77
2023-05-19T18:13:15.081Z,24.64
2023-05-19T18:15:41.841Z,24.72
2023-05-19T18:18:10.415Z,24.67
2023-05-19T18:20:38.915Z,24.81
2023-05-19T18:23:05.950Z,24.83
2023-05-19T18:25:32.587Z,24.74
2023-05-19T18:27:59.038Z,24.92
2023-05-19T18:30:25.802Z,25.01
2023-05-19T18:32:52.206Z,25.12
2023-05-19T18:35:20.737Z,25.64
2023-05-19T18:37:47.451Z,25.28
2023-05-19T18:40:14.056Z,25.46
2023-05-19T18:42:40.603Z,25.37
2023-05-19T18:45:08.048Z,25.68
2023-05-19T18:47:34.504Z,25.55
2023-05-19T18:50:01.828Z,25.70
2023-05-19T18:52:29.274Z,25.87
2023-05-19T18:54:55.934Z,26.21
2023-05-19T18:57:23.040Z,26.15
2023-05-19T18:59:49.716Z,26.26
2023-05-19T19:02:16.201Z,26.39
2023-05-19T19:04:42.700Z,26.51
2023-05-19T19:07:09.345Z,26.24
2023-05-19T19:09:35.728Z,26.78
2023-05-19T19:12:02.716Z,26.63
2023-05-19T19:14:29.265Z,26.78
2023-05-19T19:16:56.304Z,26.96
2023-05-19T19:19:24.296Z,27.42
2023-05-19T19:21:50.992Z,27.14
2023-05-19T19:24:17.931Z,27.84
2023-05-19T19:26:46.541Z,27.16
2023-05-19T19:29:15.505Z,27.29
2023-05-19T19:31:42.146Z,27.34
2023-05-19T19:34:09.677Z,26.80
2023-05-19T19:36:37.408Z,27.37
2023-05-19T19:39:04.030Z,27.41
2023-05-19T19:41:31.054Z,27.62
2023-05-19T19:43:59.928Z,27.61
2023-05-19T19:46:26.412Z,27.70
2023-05-19T19:48:56.472Z,27.95
2023-05-19T19:51:24.566Z,27.83
2023-05-19T19:53:50.929Z,27.90
2023-05-19T19:56:18.489Z,28.07
2023-05-19T19:58:44.970Z,28.06
2023-05-19T20:01:11.446Z,28.09
2023-05-19T20:03:38.139Z,28.14
2023-05-19T20:06:04.679Z,28.34
2023-05-19T20:08:31.078Z,28.52
2023-05-19T20:10:59.217Z,28.48
2023-05-19T20:13:25.877Z,28.33
2023-05-19T20:15:52.850Z,28.66
2023-05-19T20:18:20.519Z,28.39
2023-05-19T20:20:46.962Z,28.58
2023-05-19T20:23:16.126Z,28.54
2023-05-19T20:25:57.845Z,28.87
2023-05-19T20:28:29.792Z,28.54
2023-05-19T20:30:56.485Z,28.94
2023-05-19T20:33:22.965Z,28.68
2023-05-19T20:35:50.728Z,28.77
2023-05-19T20:38:18.559Z,28.85
2023-05-19T20:40:45.284Z,28.88
2023-05-19T20:43:12.206Z,29.07
2023-05-19T20:45:38.714Z,28.93
2023-05-19T20:48:05.938Z,29.11
2023-05-19T20:50:32.853Z,29.24
2023-05-19T20:53:00.684Z,29.21
2023-05-19T20:55:27.636Z,29.24
2023-05-19T20:57:55.147Z,29.22
2023-05-19T21:00:21.829Z,29.35
2023-05-19T21:02:48.484Z,29.17
2023-05-19T21:05:14.982Z,29.29
2023-05-19T21:07:41.391Z,29.32
2023-05-19T21:10:08.507Z,29.31
2023-05-19T21:12:35.500Z,29.53
2023-05-19T21:15:02.070Z,29.65
2023-05-19T21:17:29.864Z,29.59
2023-05-19T21:19:59.478Z,29.60
2023-05-19T21:22:27.225Z,29.86
2023-05-19T21:24:54.562Z,29.54
2023-05-19T21:27:22.744Z,29.65
2023-05-19T21:29:53.692Z,29.88
2023-05-19T21:32:23.286Z,30.03
2023-05-19T21:34:49.730Z,30.02
2023-05-19T21:37:19.881Z,29.73
2023-05-19T21:39:46.625Z,29.95
2023-05-19T21:42:14.388Z,30.26
2023-05-19T21:44:40.881Z,30.33
2023-05-19T21:47:07.340Z,30.17
2023-05-19T21:49:33.819Z,30.16
2023-05-19T21:52:02.052Z,30.08
2023-05-19T21:54:28.577Z,30.46
2023-05-19T21:56:55.021Z,30.39
2023-05-19T21:59:23.381Z,30.37
2023-05-19T22:01:50.267Z,30.48
2023-05-19T22:04:18.499Z,30.54
2023-05-19T22:06:45.447Z,30.65
2023-05-19T22:09:11.897Z,30.51
2023-05-19T22:11:38.966Z,30.93
2023-05-19T22:14:05.418Z,30.91
2023-05-19T22:16:33.069Z,31.00
2023-05-19T22:18:59.963Z,31.22
2023-05-19T22:21:28.485Z,31.06
2023-05-19T22:23:55.671Z,30.96
2023-05-19T22:26:22.044Z,31.43
2023-05-19T22:28:50.641Z,31.24
2023-05-19T22:31:18.098Z,31.34
2023-05-19T22:33:44.789Z,31.48
2023-05-19T22:36:11.370Z,31.72
2023-05-19T22:38:40.753Z,31.94
2023-05-19T22:41:08.811Z,31.97
2023-05-19T22:43:35.571Z,32.00
2023-05-19T22:46:02.263Z,32.21
2023-05-19T22:48:28.970Z,32.52
2023-05-19T22:50:55.776Z,32.53
2023-05-19T22:53:22.253Z,32.55
2023-05-19T22:55:48.677Z,32.68
2023-05-19T22:58:15.264Z,33.21
2023-05-19T23:00:42.686Z,33.32
2023-05-19T23:03:09.304Z,33.45
2023-05-19T23:05:37.873Z,33.50
2023-05-19T23:08:04.444Z,33.13
2023-05-19T23:10:30.870Z,33.21
2023-05-19T23:12:57.584Z,33.46
2023-05-19T23:15:24.228Z,33.41
2023-05-19T23:17:51.045Z,33.66
2023-05-19T23:20:17.692Z,33.72
2023-05-19T23:22:44.401Z,33.83
2023-05-19T23:25:12.099Z,34.10
2023-05-19T23:27:38.794Z,34.13
2023-05-19T23:30:07.016Z,34.47
2023-05-19T23:32:33.724Z,34.33
2023-05-19T23:35:19.927Z,35.07
2023-05-19T23:37:48.120Z,34.63
2023-05-19T23:40:16.166Z,34.91
2023-05-19T23:42:44.517Z,34.80
2023-05-19T23:45:11.458Z,34.66
2023-05-19T23:47:38.007Z,34.98
2023-05-19T23:50:05.006Z,34.89
2023-05-19T23:52:33.716Z,35.22
2023-05-19T23:55:00.287Z,35.08
2023-05-19T23:57:28.205Z,35.28
2023-05-19T23:59:54.624Z,35.17
